Time;durP1;ratioP1;P1;durP2;ratioP2;P2;SDS_P1;SDS_P2;PMS_P1;PMS_P2;Temp;Humidity;BMP_temperature;BMP_pressure;BME280_temperature;BME280_humidity;BME280_pressure;Samples;Min_cycle;Max_cycle;Signal;HPM_P1;HPM_P2
2023/02/08 00:00:10;;;;;;;;;18.67;17.67;25.60;32.00;;;;;;110398;1248;54976;-62
2023/02/08 00:02:57;;;;;;;;;20.00;16.50;25.70;32.00;;;;;;110342;1248;52092;-64
2023/02/08 00:05:24;;;;;;;;;18.50;15.75;25.80;32.00;;;;;;110269;1252;48854;-61
2023/02/08 00:07:51;;;;;;;;;19.00;18.00;25.90;31.90;;;;;;110426;1248;45945;-60
2023/02/08 00:10:18;;;;;;;;;18.00;16.33;25.90;31.70;;;;;;110348;1249;55893;-61
2023/02/08 00:12:45;;;;;;;;;19.00;17.75;26.00;31.90;;;;;;110385;1248;53460;-61
2023/02/08 00:15:12;;;;;;;;;18.50;16.50;26.00;31.90;;;;;;110233;1248;50136;-59
2023/02/08 00:17:39;;;;;;;;;16.50;15.00;26.00;31.60;;;;;;110392;1252;49580;-59
2023/02/08 00:20:06;;;;;;;;;19.00;17.50;26.10;31.80;;;;;;110385;1248;45503;-61
2023/02/08 00:22:33;;;;;;;;;16.00;15.00;26.10;32.10;;;;;;110379;1248;55666;-62
2023/02/08 00:25:00;;;;;;;;;18.00;16.33;26.00;31.70;;;;;;110213;1252;53829;-61
2023/02/08 00:27:27;;;;;;;;;19.00;17.33;26.00;31.50;;;;;;110412;1252;49634;-60
2023/02/08 00:29:54;;;;;;;;;20.00;19.00;26.00;31.50;;;;;;110370;1252;49676;-60
2023/02/08 00:32:21;;;;;;;;;19.00;16.67;26.00;31.70;;;;;;110354;1247;46178;-62
2023/02/08 00:34:48;;;;;;;;;15.00;14.00;26.00;31.50;;;;;;110236;1252;56745;-62
2023/02/08 00:37:15;;;;;;;;;17.00;14.50;25.90;31.40;;;;;;110210;1250;54365;-60
2023/02/08 00:39:42;;;;;;;;;18.00;17.00;25.90;31.40;;;;;;110405;1252;49543;-61
2023/02/08 00:42:09;;;;;;;;;19.00;16.00;25.90;31.40;;;;;;110410;1247;49096;-60
2023/02/08 00:44:36;;;;;;;;;18.00;16.00;25.80;31.50;;;;;;110297;1252;45813;-60
2023/02/08 00:47:04;;;;;;;;;16.00;15.00;25.80;31.30;;;;;;110241;1248;55610;-61
2023/02/08 00:49:30;;;;;;;;;21.00;16.00;25.80;31.50;;;;;;110410;1252;54374;-60
2023/02/08 00:51:57;;;;;;;;;17.67;16.00;25.70;31.40;;;;;;110411;1248;50410;-60
2023/02/08 00:54:24;;;;;;;;;19.00;18.00;25.70;31.10;;;;;;110339;1252;49682;-59
2023/02/08 00:56:51;;;;;;;;;18.33;17.33;25.60;31.10;;;;;;110404;1248;45531;-61
2023/02/08 00:59:18;;;;;;;;;19.33;18.67;25.50;31.00;;;;;;110439;1248;55601;-60
2023/02/08 01:01:45;;;;;;;;;15.50;14.50;25.50;31.10;;;;;;110424;1248;54489;-60
2023/02/08 01:04:12;;;;;;;;;18.00;17.00;25.40;30.90;;;;;;110397;1252;49638;-58
2023/02/08 01:06:40;;;;;;;;;17.00;15.00;25.40;31.00;;;;;;110310;1252;49429;-60
2023/02/08 01:09:07;;;;;;;;;18.50;16.50;25.30;30.70;;;;;;110481;1248;45947;-61
2023/02/08 01:11:34;;;;;;;;;20.00;19.00;25.20;30.60;;;;;;110405;1248;55990;-61
2023/02/08 01:14:01;;;;;;;;;20.00;16.00;25.20;30.60;;;;;;110395;1248;54076;-61
2023/02/08 01:16:30;;;;;;;;;18.67;17.33;25.10;30.50;;;;;;110748;1248;50480;-61
2023/02/08 01:18:59;;;;;;;;;18.00;15.00;25.10;30.50;;;;;;110464;1248;49428;-60
2023/02/08 01:21:29;;;;;;;;;17.00;14.00;25.00;30.40;;;;;;110371;1248;45680;-61
2023/02/08 01:23:56;;;;;;;;;19.00;15.00;25.00;30.40;;;;;;110163;1252;56224;-60
2023/02/08 01:26:24;;;;;;;;;20.00;17.00;24.90;30.30;;;;;;110296;1248;53950;-61
2023/02/08 01:28:53;;;;;;;;;20.00;17.00;24.90;30.40;;;;;;110441;1252;49651;-62
2023/02/08 01:31:27;;;;;;;;;15.50;13.00;24.80;30.40;;;;;;110633;1252;50411;-60
2023/02/08 01:33:56;;;;;;;;;18.50;17.00;24.70;30.30;;;;;;110474;1251;45818;-61
2023/02/08 01:36:24;;;;;;;;;19.00;16.00;24.70;30.40;;;;;;110299;1247;55578;-60
2023/02/08 01:38:51;;;;;;;;;17.00;16.00;24.60;30.40;;;;;;110425;1250;54464;-60
2023/02/08 01:41:22;;;;;;;;;14.50;13.00;24.60;30.50;;;;;;110415;1252;49476;-62
2023/02/08 01:44:12;;;;;;;;;17.50;15.00;24.50;30.50;;;;;;110185;1248;49497;-61
2023/02/08 01:46:44;;;;;;;;;17.00;16.00;24.50;30.90;;;;;;110264;1252;46109;-59
2023/02/08 01:49:27;;;;;;;;;16.00;14.75;24.60;30.90;;;;;;110428;1248;55779;-60
2023/02/08 01:52:02;;;;;;;;;18.00;14.33;24.60;30.80;;;;;;110382;1248;53579;-60
2023/02/08 01:54:34;;;;;;;;;17.00;16.00;24.70;30.90;;;;;;110249;1252;49115;-60
2023/02/08 01:57:01;;;;;;;;;20.00;16.75;24.80;31.00;;;;;;110461;1252;50194;-62
2023/02/08 01:59:34;;;;;;;;;18.33;16.67;24.90;31.00;;;;;;110447;1248;46126;-60
2023/02/08 02:02:02;;;;;;;;;18.00;17.00;24.90;31.00;;;;;;110404;1252;56082;-63
2023/02/08 02:04:29;;;;;;;;;20.00;14.33;25.00;30.80;;;;;;110328;1252;53583;-61
2023/02/08 02:06:57;;;;;;;;;17.67;16.33;25.00;31.20;;;;;;110398;1252;48945;-60
2023/02/08 02:09:58;;;;;;;;;17.25;13.75;25.10;31.30;;;;;;110447;1248;50034;-60
2023/02/08 02:12:26;;;;;;;;;18.50;17.50;25.20;31.30;;;;;;110319;1252;46038;-60
2023/02/08 02:14:53;;;;;;;;;19.33;16.67;25.30;31.30;;;;;;110068;1248;55207;-60
2023/02/08 02:17:20;;;;;;;;;20.00;18.00;25.40;31.10;;;;;;110424;1252;55064;-60
2023/02/08 02:19:49;;;;;;;;;15.75;14.25;25.50;31.00;;;;;;110159;1248;50591;-61
2023/02/08 02:22:47;;;;;;;;;19.00;15.00;25.50;31.00;;;;;;110350;1252;49969;-60
2023/02/08 02:25:51;;;;;;;;;16.33;15.00;25.60;31.00;;;;;;110226;1248;45421;-61
2023/02/08 02:28:33;;;;;;;;;15.00;14.00;25.70;31.10;;;;;;110499;1249;55647;-60
2023/02/08 02:31:24;;;;;;;;;17.00;15.50;25.80;31.00;;;;;;110376;1248;54437;-60
2023/02/08 02:34:09;;;;;;;;;16.50;14.75;25.90;31.10;;;;;;110201;1252;49188;-61
2023/02/08 02:37:02;;;;;;;;;16.00;14.00;25.90;31.00;;;;;;110199;1250;49338;-61
2023/02/08 02:39:40;;;;;;;;;15.00;13.67;26.00;31.10;;;;;;110250;1253;45856;-60
2023/02/08 02:45:01;;;;;;;;;18.50;15.50;26.10;30.80;;;;;;110188;1252;54243;-61
2023/02/08 02:47:40;;;;;;;;;16.33;15.00;26.10;30.80;;;;;;110404;1252;49660;-60
2023/02/08 02:50:54;;;;;;;;;18.00;15.00;26.10;30.80;;;;;;110479;1252;49714;-61
2023/02/08 02:53:24;;;;;;;;;16.00;15.00;26.10;30.90;;;;;;110208;1248;45557;-61
2023/02/08 02:55:57;;;;;;;;;14.33;13.00;26.10;31.00;;;;;;110253;1247;55955;-61
2023/02/08 02:58:25;;;;;;;;;15.00;13.50;26.10;30.70;;;;;;110206;1252;54199;-60
2023/02/08 03:00:54;;;;;;;;;15.00;14.00;26.00;30.60;;;;;;110150;1252;50231;-61
2023/02/08 03:03:23;;;;;;;;;19.50;18.00;26.00;30.60;;;;;;110359;1252;50169;-60
2023/02/08 03:05:52;;;;;;;;;17.00;14.00;26.00;30.60;;;;;;110223;1248;46342;-61
2023/02/08 03:08:44;;;;;;;;;17.00;15.00;25.90;30.60;;;;;;110421;1248;56505;-60
2023/02/08 03:11:20;;;;;;;;;16.00;14.00;25.90;30.50;;;;;;110468;1252;53896;-60
2023/02/08 03:13:56;;;;;;;;;16.00;14.33;25.90;30.70;;;;;;110328;1248;50062;-62
2023/02/08 03:16:31;;;;;;;;;19.67;15.67;25.90;30.50;;;;;;110257;1253;49895;-62
2023/02/08 03:19:17;;;;;;;;;15.50;14.00;25.80;30.30;;;;;;110370;1248;45579;-59
2023/02/08 03:21:56;;;;;;;;;17.00;16.00;25.80;30.20;;;;;;110403;1249;55092;-61
2023/02/08 03:24:28;;;;;;;;;15.50;14.00;25.70;30.10;;;;;;110333;1248;53354;-60
2023/02/08 03:27:09;;;;;;;;;14.00;13.00;25.60;30.00;;;;;;110327;1252;49129;-60
2023/02/08 03:30:01;;;;;;;;;17.00;16.00;25.50;30.00;;;;;;110412;1248;49595;-59
2023/02/08 03:32:50;;;;;;;;;16.50;14.00;25.50;30.00;;;;;;110420;1252;45755;-61
2023/02/08 03:35:33;;;;;;;;;18.50;14.00;25.40;29.90;;;;;;110242;1248;55734;-61
2023/02/08 03:38:05;;;;;;;;;16.00;15.00;25.40;29.80;;;;;;110207;1248;54849;-61
2023/02/08 03:40:38;;;;;;;;;15.50;14.50;25.30;29.70;;;;;;110405;1252;49085;-60
2023/02/08 03:43:22;;;;;;;;;16.00;15.00;25.20;29.70;;;;;;110360;1252;50504;-60
2023/02/08 03:45:52;;;;;;;;;16.67;15.67;25.10;29.80;;;;;;110143;1253;45316;-59
2023/02/08 03:48:22;;;;;;;;;18.00;15.00;25.10;29.80;;;;;;110415;1248;56613;-60
2023/02/08 03:50:52;;;;;;;;;15.00;13.75;25.00;30.00;;;;;;109133;1251;1230100;-60
2023/02/08 03:53:21;;;;;;;;;15.00;13.00;25.00;30.50;;;;;;110404;1248;49356;-58
2023/02/08 03:55:52;;;;;;;;;18.00;17.00;24.90;30.70;;;;;;110187;1252;49341;-59
2023/02/08 03:58:21;;;;;;;;;17.50;16.00;24.90;30.90;;;;;;110399;1249;46918;-59
2023/02/08 04:00:55;;;;;;;;;19.50;17.00;25.00;31.10;;;;;;110338;1248;55618;-60
2023/02/08 04:03:25;;;;;;;;;16.50;15.00;25.00;31.40;;;;;;110352;1248;54223;-60
2023/02/08 04:05:53;;;;;;;;;17.00;15.50;25.10;31.30;;;;;;110172;1248;50270;-60
2023/02/08 04:08:21;;;;;;;;;14.33;13.00;25.10;31.20;;;;;;110305;1248;49668;-59
2023/02/08 04:10:48;;;;;;;;;18.50;14.50;25.20;31.40;;;;;;110386;1247;46846;-59
2023/02/08 04:13:15;;;;;;;;;17.50;15.50;25.20;31.40;;;;;;110371;1252;55411;-59
2023/02/08 04:15:43;;;;;;;;;17.33;16.00;25.30;31.50;;;;;;110096;1252;53567;-60
2023/02/08 04:18:10;;;;;;;;;15.50;13.75;25.30;31.70;;;;;;110344;1252;50617;-59
2023/02/08 04:20:37;;;;;;;;;22.33;19.00;25.40;31.50;;;;;;110450;1248;48921;-60
2023/02/08 04:23:04;;;;;;;;;15.00;14.00;25.40;31.60;;;;;;110443;1252;45550;-60
2023/02/08 04:25:31;;;;;;;;;18.67;16.00;25.50;31.40;;;;;;110262;1251;56197;-60
2023/02/08 04:27:58;;;;;;;;;17.25;14.50;25.50;31.30;;;;;;110457;1248;53862;-59
2023/02/08 04:30:25;;;;;;;;;17.00;16.00;25.60;31.40;;;;;;110470;1252;49870;-59
2023/02/08 04:32:52;;;;;;;;;17.00;16.00;25.70;31.80;;;;;;110436;1252;49806;-61
2023/02/08 04:35:19;;;;;;;;;15.67;14.67;25.70;31.20;;;;;;110235;1247;45239;-60
2023/02/08 04:37:47;;;;;;;;;16.25;14.50;25.80;31.20;;;;;;110439;1252;55995;-59
2023/02/08 04:40:13;;;;;;;;;16.50;14.00;25.90;31.20;;;;;;110490;1252;53545;-60
2023/02/08 04:42:40;;;;;;;;;14.33;13.00;25.90;31.10;;;;;;110445;1252;49133;-59
2023/02/08 04:45:08;;;;;;;;;16.67;15.00;25.90;31.20;;;;;;110269;1252;49927;-60
2023/02/08 04:47:35;;;;;;;;;16.00;13.00;25.90;31.20;;;;;;110360;1252;45862;-60
2023/02/08 04:50:03;;;;;;;;;16.67;15.33;26.00;31.00;;;;;;110326;1248;55699;-60
2023/02/08 04:52:30;;;;;;;;;15.50;14.25;26.00;31.00;;;;;;110291;1248;53439;-60
2023/02/08 04:54:57;;;;;;;;;16.67;14.00;26.10;31.50;;;;;;110098;1252;49330;-60
2023/02/08 04:57:24;;;;;;;;;17.50;16.00;26.10;30.90;;;;;;110294;1252;49935;-60
2023/02/08 04:59:51;;;;;;;;;21.25;18.50;26.20;31.20;;;;;;110251;1249;45216;-60
2023/02/08 05:02:18;;;;;;;;;18.00;17.00;26.20;31.00;;;;;;110384;1248;56379;-60
2023/02/08 05:04:46;;;;;;;;;18.50;15.00;26.30;31.00;;;;;;110251;1252;53374;-60
2023/02/08 05:07:13;;;;;;;;;15.00;13.00;26.30;30.90;;;;;;110449;1248;49884;-59
2023/02/08 05:09:40;;;;;;;;;17.67;16.00;26.30;31.10;;;;;;110491;1249;50391;-59
2023/02/08 05:12:07;;;;;;;;;15.67;14.67;26.40;31.00;;;;;;110489;1248;45295;-59
2023/02/08 05:14:33;;;;;;;;;18.67;16.00;26.30;30.80;;;;;;110320;1252;55544;-59
2023/02/08 05:17:00;;;;;;;;;18.00;15.00;26.30;31.20;;;;;;110448;1250;55069;-61
2023/02/08 05:19:28;;;;;;;;;16.00;14.25;26.30;30.90;;;;;;110489;1248;49905;-63
2023/02/08 05:21:55;;;;;;;;;18.33;14.00;26.30;30.60;;;;;;110449;1252;49667;-61
2023/02/08 05:24:21;;;;;;;;;19.00;16.00;26.30;30.90;;;;;;110342;1248;46088;-61
2023/02/08 05:26:48;;;;;;;;;19.00;17.00;26.30;31.30;;;;;;110414;1248;56724;-63
2023/02/08 05:29:15;;;;;;;;;21.00;18.00;26.20;31.00;;;;;;110435;1252;54166;-64
2023/02/08 05:31:42;;;;;;;;;23.75;19.50;26.20;31.00;;;;;;110341;1253;48947;-65
2023/02/08 05:34:09;;;;;;;;;20.00;18.00;26.20;31.10;;;;;;110485;1252;50768;-60
2023/02/08 05:36:37;;;;;;;;;21.00;19.00;26.10;30.80;;;;;;110319;1249;45160;-63
2023/02/08 05:39:04;;;;;;;;;24.25;17.50;26.10;30.70;;;;;;110464;1248;55729;-72
2023/02/08 05:41:32;;;;;;;;;21.00;18.00;26.00;30.80;;;;;;110542;1252;54014;-66
2023/02/08 05:43:59;;;;;;;;;20.00;18.33;25.90;30.40;;;;;;110594;1248;49855;-66
2023/02/08 05:46:26;;;;;;;;;20.00;18.00;25.90;30.30;;;;;;110897;1247;49129;-74
2023/02/08 05:48:53;;;;;;;;;23.25;20.75;25.90;30.30;;;;;;110463;1248;45557;-64
2023/02/08 05:51:20;;;;;;;;;22.00;20.00;25.90;30.10;;;;;;110442;1252;56102;-66
2023/02/08 05:53:47;;;;;;;;;22.00;19.00;25.80;30.30;;;;;;110494;1248;54099;-65
2023/02/08 05:56:14;;;;;;;;;23.50;20.50;25.70;30.10;;;;;;110309;1252;49335;-66
2023/02/08 05:58:41;;;;;;;;;27.00;19.00;25.70;30.10;;;;;;110450;1252;49606;-65
2023/02/08 06:01:09;;;;;;;;;21.00;18.00;25.60;30.10;;;;;;110518;1252;46117;-66
2023/02/08 06:03:37;;;;;;;;;22.50;18.00;25.60;30.20;;;;;;110517;1252;55209;-68
2023/02/08 06:06:05;;;;;;;;;20.00;18.50;25.50;30.50;;;;;;110853;1252;54107;-66
2023/02/08 06:08:32;;;;;;;;;23.00;16.50;25.40;30.30;;;;;;110555;1248;49316;-65
2023/02/08 06:10:59;;;;;;;;;24.00;21.50;25.40;30.30;;;;;;110526;1249;49146;-69
2023/02/08 06:13:28;;;;;;;;;24.75;20.50;25.30;30.20;;;;;;110569;1252;46051;-68
2023/02/08 06:15:55;;;;;;;;;;;25.20;30.20;;;;;;110400;1249;55629;-67
2023/02/08 06:18:23;;;;;;;;;23.67;19.33;25.20;30.20;;;;;;110504;1248;54071;-70
2023/02/08 06:20:53;;;;;;;;;24.33;15.67;25.20;30.20;;;;;;110592;1252;49086;-68
2023/02/08 06:23:21;;;;;;;;;20.33;18.00;25.00;30.10;;;;;;110550;1252;49726;-73
2023/02/08 06:25:48;;;;;;;;;23.00;22.00;24.90;30.10;;;;;;110741;1248;45348;-73
2023/02/08 06:28:15;;;;;;;;;27.00;24.00;24.90;30.20;;;;;;110487;1252;55587;-66
2023/02/08 06:30:43;;;;;;;;;26.00;22.00;24.80;30.20;;;;;;110435;1247;53819;-68
2023/02/08 06:33:10;;;;;;;;;23.00;20.33;24.80;30.50;;;;;;110505;1252;49380;-67
2023/02/08 06:35:37;;;;;;;;;22.25;20.00;24.60;30.40;;;;;;110848;1248;48752;-68
2023/02/08 06:38:04;;;;;;;;;26.50;22.00;24.60;30.60;;;;;;110429;1249;46091;-70
2023/02/08 06:40:31;;;;;;;;;24.50;21.00;24.70;30.80;;;;;;110518;1248;56802;-68
2023/02/08 06:42:58;;;;;;;;;26.00;22.00;24.70;30.80;;;;;;110358;1252;53505;-65
2023/02/08 06:45:25;;;;;;;;;21.75;19.50;24.70;30.80;;;;;;110813;1248;49911;-69
2023/02/08 06:47:52;;;;;;;;;23.00;21.33;24.80;30.90;;;;;;110310;1248;49759;-69
2023/02/08 06:50:19;;;;;;;;;19.00;18.00;24.90;30.90;;;;;;110379;1248;45130;-69
2023/02/08 06:52:46;;;;;;;;;25.00;19.50;24.90;30.70;;;;;;110354;1252;56183;-67
2023/02/08 06:55:13;;;;;;;;;23.00;20.50;25.00;30.90;;;;;;110381;1247;54228;-64
2023/02/08 06:57:40;;;;;;;;;19.00;18.00;25.00;31.10;;;;;;110343;1248;49170;-63
2023/02/08 07:00:08;;;;;;;;;22.00;21.00;25.10;30.80;;;;;;110349;1252;50664;-61
2023/02/08 07:02:35;;;;;;;;;20.50;18.75;25.20;30.90;;;;;;110349;1247;46660;-62
2023/02/08 07:05:03;;;;;;;;;20.67;18.67;25.20;31.10;;;;;;110414;1248;55765;-63
2023/02/08 07:07:30;;;;;;;;;24.00;22.00;25.30;31.10;;;;;;110406;1249;53815;-64
2023/02/08 07:09:57;;;;;;;;;23.50;21.00;25.40;31.20;;;;;;110362;1248;50513;-72
2023/02/08 07:12:24;;;;;;;;;39.00;32.00;25.50;31.90;;;;;;110656;1252;49707;-73
2023/02/08 07:14:51;;;;;;;;;48.00;35.00;25.60;33.70;;;;;;110875;1248;45508;-69
2023/02/08 07:17:18;;;;;;;;;48.00;32.00;25.60;36.40;;;;;;110617;1252;55994;-66
2023/02/08 07:19:45;;;;;;;;;46.67;33.00;25.80;36.20;;;;;;110263;1252;53886;-66
2023/02/08 07:22:12;;;;;;;;;41.00;32.00;25.90;36.80;;;;;;110365;1252;49207;-67
2023/02/08 07:24:40;;;;;;;;;42.00;31.00;26.00;37.70;;;;;;110635;1252;49165;-63
2023/02/08 07:27:11;;;;;;;;;48.00;34.00;26.10;39.20;;;;;;110489;1252;45523;-62
2023/02/08 07:29:39;;;;;;;;;57.00;41.00;26.20;38.30;;;;;;110577;1252;55741;-61
2023/02/08 07:32:07;;;;;;;;;50.00;35.00;26.30;37.70;;;;;;110381;1254;54231;-64
2023/02/08 07:34:37;;;;;;;;;47.25;32.00;26.40;36.20;;;;;;110392;1252;49719;-63
2023/02/08 07:37:04;;;;;;;;;45.50;34.50;26.50;36.60;;;;;;110192;1249;49825;-62
2023/02/08 07:39:31;;;;;;;;;39.50;34.00;26.50;36.30;;;;;;110411;1248;45832;-61
2023/02/08 07:41:58;;;;;;;;;41.67;30.00;26.50;36.00;;;;;;110426;1252;56657;-62
2023/02/08 07:44:25;;;;;;;;;43.00;32.50;26.50;35.60;;;;;;110352;1252;54443;-61
2023/02/08 07:46:52;;;;;;;;;36.00;30.00;26.50;37.00;;;;;;110277;1248;49827;-62
2023/02/08 07:49:19;;;;;;;;;42.00;33.50;26.50;37.20;;;;;;112354;1247;49726;-62
2023/02/08 07:51:46;;;;;;;;;44.50;30.00;26.50;37.30;;;;;;112413;1252;47102;-63
2023/02/08 07:54:13;;;;;;;;;48.33;34.00;26.60;36.40;;;;;;112375;1248;55735;-63
2023/02/08 07:56:40;;;;;;;;;42.50;31.00;26.80;36.30;;;;;;110615;1252;54677;-61
2023/02/08 07:59:07;;;;;;;;;45.00;34.50;26.90;36.20;;;;;;110287;1248;49635;-62
2023/02/08 08:01:34;;;;;;;;;41.50;32.50;26.90;36.30;;;;;;110330;1252;49537;-63
2023/02/08 08:04:01;;;;;;;;;48.67;37.33;26.80;36.10;;;;;;110398;1247;45769;-63
2023/02/08 08:06:28;;;;;;;;;43.00;33.00;26.70;36.30;;;;;;110759;1248;56896;-63
2023/02/08 08:08:55;;;;;;;;;49.00;34.33;26.50;35.70;;;;;;110369;1252;54121;-63
2023/02/08 08:11:22;;;;;;;;;46.00;34.50;26.40;35.50;;;;;;110406;1252;50020;-63
2023/02/08 08:13:50;;;;;;;;;45.50;33.50;26.30;35.30;;;;;;110427;1248;48748;-63
2023/02/08 08:16:18;;;;;;;;;49.00;36.00;26.20;35.20;;;;;;110439;1247;46061;-62
2023/02/08 08:18:46;;;;;;;;;44.67;34.00;26.00;34.70;;;;;;110394;1250;55370;-63
2023/02/08 08:21:14;;;;;;;;;37.50;31.00;26.00;34.60;;;;;;110428;1247;54028;-62
2023/02/08 08:23:41;;;;;;;;;40.67;29.67;25.90;34.30;;;;;;110325;1252;49635;-63
2023/02/08 08:26:14;;;;;;;;;41.67;31.00;25.80;34.20;;;;;;110391;1252;49124;-62
2023/02/08 08:28:41;;;;;;;;;39.00;30.50;25.70;34.30;;;;;;110302;1248;45912;-63
2023/02/08 08:31:14;;;;;;;;;34.67;27.00;25.60;33.70;;;;;;110449;1248;55509;-63
2023/02/08 08:33:41;;;;;;;;;35.50;31.00;25.50;33.80;;;;;;110417;1248;53522;-64
2023/02/08 08:36:08;;;;;;;;;32.00;29.00;25.40;33.60;;;;;;110433;1248;48981;-63
2023/02/08 08:38:37;;;;;;;;;43.67;33.00;25.40;33.60;;;;;;110398;1252;49852;-63
2023/02/08 08:41:09;;;;;;;;;41.00;33.33;25.30;33.50;;;;;;110321;1248;45483;-62
2023/02/08 08:43:36;;;;;;;;;38.00;29.00;25.20;33.20;;;;;;110300;1252;56224;-62
2023/02/08 08:46:07;;;;;;;;;38.00;31.00;25.20;33.20;;;;;;110494;1248;53949;-63
2023/02/08 08:48:35;;;;;;;;;38.50;32.00;25.10;33.20;;;;;;110369;1252;49605;-61
2023/02/08 08:51:02;;;;;;;;;38.00;31.00;25.00;32.50;;;;;;110333;1252;48780;-62
2023/02/08 08:53:29;;;;;;;;;39.75;31.00;24.90;33.20;;;;;;110333;1248;46021;-64
2023/02/08 08:55:56;;;;;;;;;37.00;29.00;24.90;33.10;;;;;;110159;1252;56070;-63
2023/02/08 08:58:23;;;;;;;;;39.00;31.33;24.90;33.10;;;;;;110266;1248;54495;-65
2023/02/08 09:00:50;;;;;;;;;33.00;29.00;24.80;33.00;;;;;;110301;1252;50464;-63
2023/02/08 09:03:17;;;;;;;;;40.50;33.50;24.70;33.00;;;;;;110352;1248;49507;-63
2023/02/08 09:05:45;;;;;;;;;32.33;30.00;24.60;32.90;;;;;;110416;1248;45270;-62
2023/02/08 09:08:12;;;;;;;;;35.67;29.67;24.50;32.50;;;;;;110487;1252;55653;-64
2023/02/08 09:10:39;;;;;;;;;37.33;30.67;24.40;32.70;;;;;;110487;1251;54408;-62
2023/02/08 09:13:07;;;;;;;;;38.00;29.00;24.20;33.10;;;;;;110509;1248;49960;-63
2023/02/08 09:15:38;;;;;;;;;38.00;31.50;24.10;33.10;;;;;;110239;1248;49776;-63
2023/02/08 09:18:05;;;;;;;;;36.00;29.67;24.00;33.10;;;;;;110415;1248;45723;-62
2023/02/08 09:20:32;;;;;;;;;43.50;31.50;23.90;33.20;;;;;;110364;1252;55406;-63
2023/02/08 09:22:59;;;;;;;;;39.00;31.00;23.80;33.30;;;;;;110390;1248;54016;-63
2023/02/08 09:25:26;;;;;;;;;39.00;31.00;23.70;33.40;;;;;;110236;1250;49232;-62
2023/02/08 09:27:53;;;;;;;;;35.00;31.00;23.60;33.30;;;;;;110434;1248;48997;-61
2023/02/08 09:30:20;;;;;;;;;34.25;30.00;23.50;33.50;;;;;;110398;1252;45535;-60
2023/02/08 09:32:47;;;;;;;;;30.00;27.00;23.50;34.10;;;;;;110417;1248;55345;-61
2023/02/08 09:35:14;;;;;;;;;28.67;24.33;23.30;34.00;;;;;;110289;1252;54981;-61
2023/02/08 09:37:41;;;;;;;;;37.50;31.75;23.20;33.70;;;;;;110435;1248;49135;-62
2023/02/08 09:40:24;;;;;;;;;30.50;28.00;23.20;33.60;;;;;;110459;1248;50023;-60
2023/02/08 09:43:10;;;;;;;;;35.00;31.00;23.10;33.50;;;;;;110452;1247;46098;-61
2023/02/08 09:45:43;;;;;;;;;33.33;31.00;23.00;33.40;;;;;;110301;1247;55552;-61
2023/02/08 09:48:34;;;;;;;;;28.00;27.00;22.90;33.80;;;;;;110449;1252;54279;-60
2023/02/08 09:51:16;;;;;;;;;37.33;30.00;22.90;33.80;;;;;;110344;1248;49753;-62
2023/02/08 09:53:46;;;;;;;;;42.00;33.25;22.80;33.70;;;;;;110310;1252;49396;-61
2023/02/08 09:56:16;;;;;;;;;41.67;32.33;22.80;33.70;;;;;;110248;1247;45703;-60
2023/02/08 09:58:45;;;;;;;;;53.33;40.33;22.80;33.90;;;;;;110417;1252;56944;-60
2023/02/08 10:01:26;;;;;;;;;52.00;39.50;22.80;34.90;;;;;;110406;1250;53976;-61
2023/02/08 10:03:59;;;;;;;;;54.00;41.50;22.80;35.70;;;;;;110019;1251;49872;-61
2023/02/08 10:06:26;;;;;;;;;46.00;35.00;22.70;35.20;;;;;;110251;1250;50229;-61
2023/02/08 10:08:53;;;;;;;;;48.00;38.00;22.70;35.40;;;;;;110229;1248;46002;-62
2023/02/08 10:11:58;;;;;;;;;48.75;37.75;22.70;35.30;;;;;;110400;1251;55903;-61
2023/02/08 10:14:39;;;;;;;;;50.00;38.50;22.70;35.20;;;;;;110244;1248;54206;-61
2023/02/08 10:17:28;;;;;;;;;47.00;37.33;22.60;35.10;;;;;;110242;1248;49667;-61
2023/02/08 10:20:23;;;;;;;;;45.00;36.00;22.60;35.10;;;;;;110364;1251;49677;-62
2023/02/08 10:23:22;;;;;;;;;45.25;36.50;22.60;35.10;;;;;;110091;1252;45613;-61
2023/02/08 10:26:05;;;;;;;;;44.33;35.33;22.60;35.40;;;;;;110458;1248;56703;-60
2023/02/08 10:28:59;;;;;;;;;46.50;35.75;22.60;35.30;;;;;;110390;1248;54108;-62
2023/02/08 10:31:58;;;;;;;;;46.67;36.33;22.60;35.40;;;;;;110391;1248;49450;-60
2023/02/08 10:34:45;;;;;;;;;43.67;36.67;22.60;35.10;;;;;;109940;1252;49889;-61
2023/02/08 10:37:33;;;;;;;;;43.50;36.00;22.60;35.20;;;;;;110415;1252;45274;-61
2023/02/08 10:40:31;;;;;;;;;42.00;35.00;22.60;34.70;;;;;;110448;1248;55622;-61
2023/02/08 10:43:16;;;;;;;;;41.00;35.00;22.60;34.70;;;;;;110174;1252;53458;-61
2023/02/08 10:45:55;;;;;;;;;46.00;36.00;22.60;34.30;;;;;;110381;1248;50232;-62
2023/02/08 10:48:37;;;;;;;;;47.00;35.67;22.60;34.00;;;;;;110442;1247;49135;-60
2023/02/08 10:51:05;;;;;;;;;41.00;32.00;22.70;33.80;;;;;;110263;1251;45841;-60
2023/02/08 10:53:32;;;;;;;;;42.50;31.75;22.70;33.60;;;;;;110486;1248;56345;-62
2023/02/08 10:55:59;;;;;;;;;37.00;30.50;22.70;33.50;;;;;;110412;1252;53432;-61
2023/02/08 10:58:26;;;;;;;;;46.00;34.50;22.70;33.70;;;;;;110415;1249;50004;-60
2023/02/08 11:00:56;;;;;;;;;42.00;33.00;22.60;33.20;;;;;;110396;1252;49887;-62
2023/02/08 11:03:25;;;;;;;;;35.00;30.00;22.70;33.20;;;;;;110343;1252;45924;-61
2023/02/08 11:05:52;;;;;;;;;37.00;33.00;22.60;33.00;;;;;;110447;1249;55759;-62
2023/02/08 11:08:24;;;;;;;;;35.50;30.25;22.60;32.90;;;;;;110386;1252;53560;-61
2023/02/08 11:11:05;;;;;;;;;34.67;29.00;22.70;33.10;;;;;;110360;1252;48888;-60
2023/02/08 11:13:37;;;;;;;;;36.50;30.50;22.70;32.80;;;;;;110349;1248;49753;-62
2023/02/08 11:16:06;;;;;;;;;31.00;29.00;22.70;32.70;;;;;;110430;1248;46486;-62
2023/02/08 11:18:46;;;;;;;;;39.00;32.00;22.70;32.50;;;;;;110367;1252;55578;-61
2023/02/08 11:21:32;;;;;;;;;44.00;32.00;22.70;32.40;;;;;;110387;1248;54806;-62
2023/02/08 11:24:16;;;;;;;;;34.67;32.00;22.70;32.40;;;;;;110426;1248;49487;-61
2023/02/08 11:26:43;;;;;;;;;40.00;29.00;22.80;32.40;;;;;;110392;1253;50089;-61
2023/02/08 11:29:17;;;;;;;;;33.00;30.50;22.80;32.30;;;;;;110427;1252;45990;-61
2023/02/08 11:32:17;;;;;;;;;35.00;30.50;22.80;31.80;;;;;;110472;1248;55477;-61
2023/02/08 11:34:44;;;;;;;;;39.67;30.33;22.80;32.50;;;;;;110412;1248;54280;-61
2023/02/08 11:37:22;;;;;;;;;36.67;31.00;22.90;32.30;;;;;;110482;1252;49608;-62
2023/02/08 11:39:53;;;;;;;;;29.00;26.25;22.90;32.40;;;;;;110431;1248;48795;-62
2023/02/08 11:42:36;;;;;;;;;33.75;30.75;23.00;32.40;;;;;;110419;1252;45631;-61
2023/02/08 11:45:04;;;;;;;;;31.00;27.75;23.00;31.80;;;;;;110454;1248;55391;-62
2023/02/08 11:47:36;;;;;;;;;33.50;29.50;23.00;32.70;;;;;;110463;1248;54667;-61
2023/02/08 11:50:06;;;;;;;;;30.50;26.00;23.00;32.00;;;;;;110475;1247;50666;-61
2023/02/08 11:52:40;;;;;;;;;29.00;27.00;23.10;32.10;;;;;;110447;1248;49737;-62
2023/02/08 11:55:23;;;;;;;;;33.33;27.33;23.10;32.10;;;;;;110407;1248;45526;-61
2023/02/08 11:57:56;;;;;;;;;27.00;23.00;23.10;32.10;;;;;;110307;1252;55775;-61
2023/02/08 12:00:28;;;;;;;;;31.00;27.25;23.10;32.10;;;;;;110359;1250;53365;-66
2023/02/08 12:03:01;;;;;;;;;28.33;25.33;23.20;32.10;;;;;;110494;1253;50361;-61
2023/02/08 12:05:41;;;;;;;;;29.00;26.00;23.20;32.30;;;;;;110430;1249;49051;-66
2023/02/08 12:08:24;;;;;;;;;32.00;27.00;23.20;32.10;;;;;;110426;1247;46113;-60
2023/02/08 12:11:11;;;;;;;;;29.75;25.25;23.30;32.10;;;;;;110219;1251;56279;-60
2023/02/08 12:13:53;;;;;;;;;28.50;23.00;23.30;32.00;;;;;;110456;1252;54371;-62
2023/02/08 12:16:54;;;;;;;;;35.00;30.00;23.30;32.00;;;;;;110463;1252;49870;-61
2023/02/08 12:20:00;;;;;;;;;32.33;27.67;23.30;32.20;;;;;;110403;1250;49588;-61
2023/02/08 12:22:29;;;;;;;;;32.00;29.00;23.30;31.90;;;;;;110065;1257;46002;-61
2023/02/08 12:25:23;;;;;;;;;27.67;24.00;23.30;31.90;;;;;;110400;1250;55158;-61
2023/02/08 12:27:58;;;;;;;;;28.75;26.25;23.30;31.90;;;;;;110378;1249;54358;-61
2023/02/08 12:30:28;;;;;;;;;27.00;24.33;23.30;32.10;;;;;;110460;1247;49368;-65
2023/02/08 12:33:51;;;;;;;;;26.33;22.33;23.30;32.00;;;;;;110249;1248;49224;-61
2023/02/08 12:36:31;;;;;;;;;25.50;24.00;23.30;31.90;;;;;;110238;1252;45189;-62
2023/02/08 12:41:56;;;;;;;;;28.50;24.75;23.30;31.40;;;;;;110519;1250;54288;-61
2023/02/08 12:44:52;;;;;;;;;27.00;24.00;23.30;31.90;;;;;;110485;1248;48806;-61
2023/02/08 12:47:31;;;;;;;;;28.00;24.00;23.30;31.90;;;;;;110449;1250;50047;-61